Map

Track Data

SID SEASON NUMBER BASIN SUBBASIN NAME ISO_TIME NATURE LAT LON WMO_WIND WMO_PRES WMO_AGENCY TRACK_TYPE DIST2LAND LANDFALL IFLAG USA_AGENCY USA_ATCF_ID USA_LAT USA_LON USA_RECORD USA_STATUS USA_WIND USA_PRES USA_SSHS USA_R34_NE USA_R34_SE USA_R34_SW USA_R34_NW USA_R50_NE USA_R50_SE USA_R50_SW USA_R50_NW USA_R64_NE USA_R64_SE USA_R64_SW USA_R64_NW USA_POCI USA_ROCI USA_RMW USA_EYE TOKYO_LAT TOKYO_LON TOKYO_GRADE TOKYO_WIND TOKYO_PRES TOKYO_R50_DIR TOKYO_R50_LONG TOKYO_R50_SHORT TOKYO_R30_DIR TOKYO_R30_LONG TOKYO_R30_SHORT TOKYO_LAND CMA_LAT CMA_LON CMA_CAT CMA_WIND CMA_PRES HKO_LAT HKO_LON HKO_CAT HKO_WIND HKO_PRES NEWDELHI_LAT NEWDELHI_LON NEWDELHI_GRADE NEWDELHI_WIND NEWDELHI_PRES NEWDELHI_CI NEWDELHI_DP NEWDELHI_POCI REUNION_LAT REUNION_LON REUNION_TYPE REUNION_WIND REUNION_PRES REUNION_TNUM REUNION_CI REUNION_RMW REUNION_R34_NE REUNION_R34_SE REUNION_R34_SW REUNION_R34_NW REUNION_R50_NE REUNION_R50_SE REUNION_R50_SW REUNION_R50_NW REUNION_R64_NE REUNION_R64_SE REUNION_R64_SW REUNION_R64_NW BOM_LAT BOM_LON BOM_TYPE BOM_WIND BOM_PRES BOM_TNUM BOM_CI BOM_RMW BOM_R34_NE BOM_R34_SE BOM_R34_SW BOM_R34_NW BOM_R50_NE BOM_R50_SE BOM_R50_SW BOM_R50_NW BOM_R64_NE BOM_R64_SE BOM_R64_SW BOM_R64_NW BOM_ROCI BOM_POCI BOM_EYE BOM_POS_METHOD BOM_PRES_METHOD NADI_LAT NADI_LON NADI_CAT NADI_WIND NADI_PRES WELLINGTON_LAT WELLINGTON_LON WELLINGTON_WIND WELLINGTON_PRES DS824_LAT DS824_LON DS824_STAGE DS824_WIND DS824_PRES TD9636_LAT TD9636_LON TD9636_STAGE TD9636_WIND TD9636_PRES TD9635_LAT TD9635_LON TD9635_WIND TD9635_PRES TD9635_ROCI NEUMANN_LAT NEUMANN_LON NEUMANN_CLASS NEUMANN_WIND NEUMANN_PRES MLC_LAT MLC_LON MLC_CLASS MLC_WIND MLC_PRES USA_GUST BOM_GUST BOM_GUST_PER REUNION_GUST REUNION_GUST_PER USA_SEAHGT USA_SEARAD_NE USA_SEARAD_SE USA_SEARAD_SW USA_SEARAD_NW STORM_SPEED STORM_DIR
1958062S16118 1958 19 SI WA NOT_NAMED 1958-03-02 23:00:00 NR -16.0000 117.800 main 478 471 __________O___ -1 -16.0000 117.800 1 8 223
1958062S16118 1958 19 SI WA NOT_NAMED 1958-03-03 00:00:00 TS -16.0917 117.709 main 471 457 O________OP___ jtwc_sh SH201958 -16.1000 117.700 -1 -16.1000 117.700 TC -16.0834 117.718 1 7 224
1958062S16118 1958 19 SI WA NOT_NAMED 1958-03-03 03:00:00 TS -16.3429 117.461 main 457 435 P________PP___ SH201958 -16.3501 117.455 -1 -16.3501 117.455 TC -16.3333 117.469 1 7 224
1958062S16118 1958 19 SI WA NOT_NAMED 1958-03-03 06:00:00 TS -16.5933 117.202 main 435 419 O________OP___ jtwc_sh SH201958 -16.6000 117.200 -1 -16.6000 117.200 TC -16.5832 117.205 1 7 226
1958062S16118 1958 19 SI WA NOT_NAMED 1958-03-03 09:00:00 TS -16.8444 116.920 main 422 402 P________PP___ SH201958 -16.8499 116.922 -1 -16.8499 116.922 TC -16.8332 116.914 1 8 229
1958062S16118 1958 19 SI WA NOT_NAMED 1958-03-03 11:00:00 TS -17.0111 116.709 main 402 391 P________PO___ SH201958 -17.0166 116.714 -1 -17.0166 116.714 TC -17.0000 116.700 1 8 231
1958062S16118 1958 19 SI WA NOT_NAMED 1958-03-03 12:00:00 TS -17.0945 116.595 main 391 370 O________OP___ jtwc_sh SH201958 -17.1000 116.600 -1 -17.1000 116.600 TC -17.0834 116.586 1 9 235
1958062S16118 1958 19 SI WA NOT_NAMED 1958-03-03 15:00:00 TS -17.3484 116.208 main 372 345 P________PP___ SH201958 -17.3576 116.200 -1 -17.3576 116.200 TC -17.3299 116.225 1 9 236
1958062S16118 1958 19 SI WA NOT_NAMED 1958-03-03 18:00:00 TS -17.5879 115.819 main 348 333 O________OP___ jtwc_sh SH201958 -17.6000 115.800 -1 -17.6000 115.800 TC -17.5638 115.856 1 8 236
1958062S16118 1958 19 SI WA NOT_NAMED 1958-03-03 21:00:00 TS -17.8068 115.482 main 337 331 P________PP___ SH201958 -17.8224 115.470 -1 -17.8224 115.470 TC -17.7756 115.507 1 7 236
1958062S16118 1958 19 SI WA NOT_NAMED 1958-03-03 23:00:00 TS -17.9316 115.289 main 335 325 P________PO___ SH201958 -17.9474 115.283 -1 -17.9474 115.283 TC -17.9000 115.300 1 6 236
1958062S16118 1958 19 SI WA NOT_NAMED 1958-03-04 00:00:00 TS -17.9846 115.204 main 330 326 O________OP___ jtwc_sh SH201958 -18.0000 115.200 -1 -18.0000 115.200 TC -17.9537 115.213 1 5 239
1958062S16118 1958 19 SI WA NOT_NAMED 1958-03-04 03:00:00 TS -18.1074 114.985 main 331 328 P________PP___ SH201958 -18.1149 114.985 -1 -18.1149 114.985 TC -18.0924 114.985 1 4 241
1958062S16118 1958 19 SI WA NOT_NAMED 1958-03-04 06:00:00 TS -18.2033 114.798 main 334 330 O________OP___ jtwc_sh SH201958 -18.2000 114.800 -1 -18.2000 114.800 TC -18.2098 114.793 1 4 242
1958062S16118 1958 19 SI WA NOT_NAMED 1958-03-04 09:00:00 TS -18.3021 114.606 main 335 331 P________PP___ SH201958 -18.2925 114.600 -1 -18.2925 114.600 TC -18.3213 114.617 1 4 241
1958062S16118 1958 19 SI WA NOT_NAMED 1958-03-04 11:00:00 TS -18.3740 114.478 main 331 331 P________PO___ SH201958 -18.3609 114.467 -1 -18.3609 114.467 TC -18.4000 114.500 1 4 239
1958062S16118 1958 19 SI WA NOT_NAMED 1958-03-04 12:00:00 TS -18.4143 114.410 main 337 334 O________OP___ jtwc_sh SH201958 -18.4000 114.400 -1 -18.4000 114.400 TC -18.4430 114.430 1 5 236
1958062S16118 1958 19 SI WA NOT_NAMED 1958-03-04 15:00:00 TS -18.5486 114.206 main 340 327 P________PP___ SH201958 -18.5350 114.200 -1 -18.5350 114.200 TC -18.5758 114.217 1 5 233
1958062S16118 1958 19 SI WA NOT_NAMED 1958-03-04 18:00:00 TS -18.7065 114.003 main 333 329 O________OP___ jtwc_sh SH201958 -18.7000 114.000 -1 -18.7000 114.000 TC -18.7195 114.009 1 5 229
1958062S16118 1958 19 SI WA NOT_NAMED 1958-03-04 21:00:00 TS -18.8884 113.795 main 329 325 P________PP___ SH201958 -18.8925 113.785 -1 -18.8925 113.785 TC -18.8803 113.816 1 5 225
1958062S16118 1958 19 SI WA NOT_NAMED 1958-03-04 23:00:00 TS -19.0205 113.670 main 325 315 P________PO___ SH201958 -19.0307 113.655 -1 -19.0307 113.655 TC -19.0000 113.700 1 5 221
1958062S16118 1958 19 SI WA NOT_NAMED 1958-03-05 00:00:00 TS -19.0875 113.614 main 315 295 O________OP___ jtwc_sh SH201958 -19.1000 113.600 -1 -19.1000 113.600 TC -19.0625 113.643 1 5 213
1958062S16118 1958 19 SI WA NOT_NAMED 1958-03-05 03:00:00 TS -19.2834 113.486 main 295 275 P________PP___ SH201958 -19.2925 113.485 -1 -19.2925 113.485 TC -19.2654 113.488 1 5 208
1958062S16118 1958 19 SI WA NOT_NAMED 1958-03-05 06:00:00 TS -19.4964 113.386 main 275 256 O________OP___ jtwc_sh SH201958 -19.5000 113.400 -1 -19.5000 113.400 TC -19.4892 113.357 1 5 202
1958062S16118 1958 19 SI WA NOT_NAMED 1958-03-05 09:00:00 TS -19.7386 113.284 main 256 238 P________PP___ SH201958 -19.7425 113.300 -1 -19.7425 113.300 TC -19.7307 113.253 1 5 200
1958062S16118 1958 19 SI WA NOT_NAMED 1958-03-05 11:00:00 TS -19.9094 113.222 main 238 228 P________PO___ SH201958 -19.9140 113.233 -1 -19.9140 113.233 TC -19.9000 113.200 1 5 202
1958062S16118 1958 19 SI WA NOT_NAMED 1958-03-05 12:00:00 TS -19.9908 113.184 main 228 211 O________OP___ jtwc_sh SH201958 -20.0000 113.200 -1 -20.0000 113.200 TC -19.9725 113.153 1 5 206
1958062S16118 1958 19 SI WA NOT_NAMED 1958-03-05 15:00:00 TS -20.2270 113.054 main 211 187 P________PP___ SH201958 -20.2425 113.070 -1 -20.2425 113.070 TC -20.1959 113.023 1 5 201
1958062S16118 1958 19 SI WA NOT_NAMED 1958-03-05 18:00:00 TS -20.4826 112.984 main 187 169 O________OP___ jtwc_sh SH201958 -20.5000 113.000 -1 -20.5000 113.000 TC -20.4478 112.951 1 5 185
1958062S16118 1958 19 SI WA NOT_NAMED 1958-03-05 21:00:00 TS -20.7544 113.008 main 160 137 P________PP___ SH201958 -20.7548 113.018 -1 -20.7548 113.018 TC -20.7536 112.988 1 6 167
1958062S16118 1958 19 SI WA NOT_NAMED 1958-03-05 23:00:00 TS -20.9791 113.111 main 137 121 P________PO___ SH201958 -20.9687 113.117 -1 -20.9687 113.117 TC -21.0000 113.100 2 8 154
1958062S16118 1958 19 SI WA NOT_NAMED 1958-03-06 00:00:00 TS -21.1151 113.196 main 121 61 O________OP___ jtwc_sh SH201958 -21.1000 113.200 -1 -21.1000 113.200 TC -21.1453 113.188 2 12 146
1958062S16118 1958 19 SI WA NOT_NAMED 1958-03-06 03:00:00 TS -21.6209 113.572 main 53 0 P________PP___ SH201958 -21.6125 113.575 -1 -21.6125 113.575 TC -21.6376 113.567 2 14 142
1958062S16118 1958 19 SI WA NOT_NAMED 1958-03-06 06:00:00 TS -22.1943 114.093 main 0 0 O________OP___ jtwc_sh SH201958 -22.2000 114.100 -1 -22.2000 114.100 TC -22.1830 114.079 2 15 138
1958062S16118 1958 19 SI WA NOT_NAMED 1958-03-06 09:00:00 TS -22.7569 114.672 main 0 0 P________PP___ SH201958 -22.7649 114.670 -1 -22.7649 114.670 TC -22.7409 114.677 2 16 135
1958062S16118 1958 19 SI WA NOT_NAMED 1958-03-06 11:00:00 TS -23.1187 115.091 main 0 0 P________PO___ SH201958 -23.1280 115.087 -1 -23.1280 115.087 TC -23.1000 115.100 1 16 132
1958062S16118 1958 19 SI WA NOT_NAMED 1958-03-06 12:00:00 TS -23.2886 115.305 main 0 0 O________OP___ jtwc_sh SH201958 -23.3000 115.300 -1 -23.3000 115.300 TC -23.2716 115.314 1 15 129
1958062S16118 1958 19 SI WA NOT_NAMED 1958-03-06 15:00:00 TS -23.7629 115.953 main 0 0 P________PP___ SH201958 -23.7705 115.947 -1 -23.7705 115.947 TC -23.7553 115.958 1 15 128
1958062S16118 1958 19 SI WA NOT_NAMED 1958-03-06 18:00:00 TS -24.2013 116.605 main 0 0 O________OP___ jtwc_sh SH201958 -24.2000 116.600 -1 -24.2000 116.600 TC -24.2022 116.608 1 15 126
1958062S16118 1958 19 SI WA NOT_NAMED 1958-03-06 21:00:00 NR -24.6251 117.262 main 0 0 __________P___ SH201958 -1 TC -24.6251 117.262 1 15 125
1958062S16118 1958 19 SI WA NOT_NAMED 1958-03-06 23:00:00 NR -24.9000 117.700 main 0 __________O___ SH201958 -1 TC -24.9000 117.700 1 15 125

About IBTrACS Database

This database is a web-friendly format of International Best Track Archive for Climate Stewardship (IBTrACS), a global best track data archive curated by NOAA dating back to 1842.

Updated: 2021-11-26